Time;durP1;ratioP1;P1;durP2;ratioP2;P2;SDS_P1;SDS_P2;PMS_P1;PMS_P2;Temp;Humidity;BMP_temperature;BMP_pressure;BME280_temperature;BME280_humidity;BME280_pressure;Samples;Min_cycle;Max_cycle;Signal;HPM_P1;HPM_P2
2022/01/23 00:02:15;;;;;;;31.33;5.32;;;;;;;;;;4982802;28;20034;-69
2022/01/23 00:04:42;;;;;;;32.60;7.07;;;;;;;;;;4981707;28;20311;-69
2022/01/23 00:07:10;;;;;;;30.23;5.63;;;;;;;;;;4992728;28;20628;-69
2022/01/23 00:09:38;;;;;;;22.40;5.22;;;;;;;;;;4981406;28;20022;-68
2022/01/23 00:12:09;;;;;;;30.60;6.05;;;;;;;;;;4981428;28;20112;-69
2022/01/23 00:17:21;;;;;;;26.58;5.45;;;;;;;;;;4980910;28;20022;-68
2022/01/23 00:19:51;;;;;;;28.33;5.43;;;;;;;;;;4981693;28;20154;-68
2022/01/23 00:22:18;;;;;;;28.15;6.57;;;;;;;;;;4989365;28;20030;-67
2022/01/23 00:30:32;;;;;;;28.20;6.03;;;;;;;;;;4982412;28;20056;-68
2022/01/23 00:32:58;;;;;;;23.33;4.82;;;;;;;;;;4982217;28;20050;-69
2022/01/23 00:35:27;;;;;;;24.98;4.80;;;;;;;;;;4981234;28;20791;-68
2022/01/23 00:37:53;;;;;;;23.17;4.72;;;;;;;;;;4983407;28;20353;-69
2022/01/23 00:40:19;;;;;;;25.02;4.88;;;;;;;;;;4980654;28;20116;-68
2022/01/23 00:42:45;;;;;;;19.90;4.28;;;;;;;;;;4983484;28;20604;-68
2022/01/23 00:47:37;;;;;;;20.90;5.10;;;;;;;;;;4981863;28;20062;-68
2022/01/23 00:50:02;;;;;;;18.48;5.00;;;;;;;;;;4995608;28;20113;-68
2022/01/23 00:52:28;;;;;;;20.77;4.78;;;;;;;;;;4981373;28;20061;-69
2022/01/23 00:54:53;;;;;;;27.42;5.18;;;;;;;;;;4980457;28;20030;-69
2022/01/23 00:57:18;;;;;;;29.73;5.85;;;;;;;;;;4980843;28;20258;-68
2022/01/23 00:59:44;;;;;;;22.92;4.82;;;;;;;;;;4981135;28;20638;-68
2022/01/23 01:02:11;;;;;;;28.50;4.47;;;;;;;;;;4989715;28;20549;-68
2022/01/23 01:04:37;;;;;;;21.67;2.95;;;;;;;;;;4988427;28;20662;-68
2022/01/23 01:07:03;;;;;;;14.18;2.50;;;;;;;;;;4989438;28;20037;-69
2022/01/23 01:09:30;;;;;;;7.22;1.30;;;;;;;;;;4988958;28;21965;-68
2022/01/23 01:12:03;;;;;;;8.35;1.70;;;;;;;;;;4976539;28;20041;-69
2022/01/23 01:14:41;;;;;;;8.68;1.08;;;;;;;;;;4988889;28;20575;-69
2022/01/23 01:30:39;;;;;;;6.20;1.00;;;;;;;;;;4988617;28;20058;-69
2022/01/23 01:39:00;;;;;;;8.27;0.90;;;;;;;;;;4966136;28;20133;-69
2022/01/23 01:41:26;;;;;;;7.03;1.55;;;;;;;;;;4985693;28;20117;-67
2022/01/23 01:43:52;;;;;;;9.93;1.17;;;;;;;;;;5003370;28;20030;-69
2022/01/23 01:46:18;;;;;;;7.55;1.52;;;;;;;;;;4988562;28;20025;-69
2022/01/23 01:48:43;;;;;;;8.05;1.40;;;;;;;;;;4991761;28;20038;-69
2022/01/23 01:51:14;;;;;;;6.45;1.17;;;;;;;;;;5003245;28;20517;-68
2022/01/23 01:53:39;;;;;;;7.07;1.27;;;;;;;;;;4976081;28;20042;-69
2022/01/23 01:56:10;;;;;;;8.50;1.38;;;;;;;;;;4988836;28;20037;-68
2022/01/23 02:01:13;;;;;;;8.50;2.03;;;;;;;;;;4988263;28;20250;-68
2022/01/23 02:09:16;;;;;;;23.27;3.40;;;;;;;;;;4987931;28;20026;-69
2022/01/23 02:12:06;;;;;;;27.98;3.97;;;;;;;;;;4976148;28;20537;-69
2022/01/23 02:23:03;;;;;;;33.80;4.40;;;;;;;;;;4952123;28;20043;-68
2022/01/23 02:53:35;;;;;;;52.83;7.57;;;;;;;;;;4987531;28;20042;-68
2022/01/23 02:56:03;;;;;;;40.15;7.32;;;;;;;;;;4987594;28;20034;-68
2022/01/23 02:58:36;;;;;;;35.08;7.25;;;;;;;;;;4987110;28;20034;-69
2022/01/23 03:03:30;;;;;;;41.10;8.27;;;;;;;;;;4986559;28;20224;-68
2022/01/23 03:09:21;;;;;;;50.88;8.57;;;;;;;;;;4986535;28;20038;-68
2022/01/23 03:14:23;;;;;;;23.65;6.88;;;;;;;;;;4987422;28;20083;-68
2022/01/23 03:25:35;;;;;;;29.35;7.53;;;;;;;;;;4986457;28;20041;-69
2022/01/23 03:28:18;;;;;;;37.22;8.27;;;;;;;;;;4987286;28;20044;-68
2022/01/23 03:30:53;;;;;;;40.33;8.52;;;;;;;;;;4990220;28;20127;-69
2022/01/23 03:33:19;;;;;;;44.65;9.45;;;;;;;;;;4986581;28;20065;-68
2022/01/23 03:35:44;;;;;;;48.80;10.05;;;;;;;;;;4991005;28;20132;-68
2022/01/23 03:38:10;;;;;;;46.35;8.68;;;;;;;;;;4986505;28;20030;-69
2022/01/23 03:40:36;;;;;;;43.63;8.43;;;;;;;;;;5002281;28;20129;-68
2022/01/23 03:43:09;;;;;;;45.63;8.73;;;;;;;;;;4985480;28;20124;-69
2022/01/23 03:50:50;;;;;;;37.67;9.30;;;;;;;;;;4986518;28;20030;-69
2022/01/23 03:53:17;;;;;;;34.15;8.95;;;;;;;;;;4987001;28;20034;-68
2022/01/23 03:55:43;;;;;;;28.30;7.60;;;;;;;;;;4974952;28;20038;-69
2022/01/23 03:58:14;;;;;;;31.80;7.65;;;;;;;;;;4986291;28;20033;-69
2022/01/23 04:00:39;;;;;;;34.47;8.23;;;;;;;;;;4991107;28;20101;-69
2022/01/23 04:03:05;;;;;;;35.13;7.97;;;;;;;;;;4985429;28;20041;-68
2022/01/23 04:05:30;;;;;;;20.40;6.85;;;;;;;;;;4994379;28;20397;-69
2022/01/23 04:07:58;;;;;;;41.50;8.25;;;;;;;;;;4990322;28;20034;-69
2022/01/23 04:10:24;;;;;;;31.75;8.35;;;;;;;;;;4990231;28;20060;-68
2022/01/23 04:12:57;;;;;;;29.73;7.80;;;;;;;;;;5004790;28;20026;-69
2022/01/23 04:15:33;;;;;;;21.77;8.25;;;;;;;;;;4990182;28;20597;-68
2022/01/23 04:34:34;;;;;;;28.75;5.55;;;;;;;;;;4980180;28;20490;-69
2022/01/23 05:04:19;;;;;;;30.00;5.60;;;;;;;;;;5003255;28;20050;-68
2022/01/23 05:06:58;;;;;;;23.30;5.57;;;;;;;;;;4989649;28;20544;-68
2022/01/23 05:09:26;;;;;;;29.23;6.20;;;;;;;;;;4989558;28;20085;-68
2022/01/23 05:11:56;;;;;;;29.23;6.93;;;;;;;;;;4989659;28;20030;-69
2022/01/23 05:14:29;;;;;;;32.83;6.30;;;;;;;;;;4988343;28;21957;-69
2022/01/23 05:16:54;;;;;;;39.30;6.45;;;;;;;;;;4989391;28;20137;-67
2022/01/23 05:19:20;;;;;;;33.40;6.00;;;;;;;;;;4988434;28;20120;-68
2022/01/23 05:24:17;;;;;;;43.55;7.05;;;;;;;;;;4989712;28;20034;-69
2022/01/23 05:26:45;;;;;;;42.05;6.85;;;;;;;;;;4988592;28;20026;-69
2022/01/23 05:29:12;;;;;;;40.33;6.72;;;;;;;;;;4988406;28;20049;-69
2022/01/23 05:31:37;;;;;;;41.80;7.53;;;;;;;;;;5003415;28;20607;-69
2022/01/23 05:34:02;;;;;;;35.58;6.43;;;;;;;;;;5003316;28;20137;-69
2022/01/23 05:36:27;;;;;;;46.35;7.18;;;;;;;;;;4987692;28;20138;-69
2022/01/23 05:38:53;;;;;;;28.52;5.55;;;;;;;;;;4988610;28;20144;-69
2022/01/23 05:41:18;;;;;;;24.40;5.30;;;;;;;;;;4989574;28;20038;-69
2022/01/23 05:43:44;;;;;;;24.15;5.43;;;;;;;;;;4976459;28;20229;-69
2022/01/23 05:46:09;;;;;;;23.25;5.07;;;;;;;;;;4988306;28;20607;-69
2022/01/23 05:48:35;;;;;;;34.42;5.40;;;;;;;;;;4987277;28;20173;-69
2022/01/23 05:51:01;;;;;;;24.65;4.82;;;;;;;;;;4987626;28;20041;-68
2022/01/23 05:53:27;;;;;;;29.17;5.57;;;;;;;;;;4988281;28;20034;-69
2022/01/23 05:55:55;;;;;;;27.70;5.70;;;;;;;;;;4988603;28;20052;-69
2022/01/23 05:58:21;;;;;;;30.35;5.75;;;;;;;;;;5004244;28;20458;-69
2022/01/23 06:00:49;;;;;;;46.60;6.82;;;;;;;;;;4988365;28;20037;-69
2022/01/23 06:03:17;;;;;;;53.08;7.90;;;;;;;;;;4987166;28;20044;-69
2022/01/23 06:05:46;;;;;;;44.70;7.72;;;;;;;;;;5002731;28;20107;-69
2022/01/23 06:08:11;;;;;;;34.13;6.47;;;;;;;;;;5002336;28;20164;-69
2022/01/23 06:10:53;;;;;;;37.58;6.20;;;;;;;;;;5003184;28;20049;-69
2022/01/23 06:13:18;;;;;;;41.20;6.83;;;;;;;;;;4988102;28;20461;-69
2022/01/23 06:15:43;;;;;;;40.33;6.93;;;;;;;;;;4987606;28;20097;-69
2022/01/23 06:18:09;;;;;;;36.63;6.00;;;;;;;;;;4985959;28;20488;-69
2022/01/23 06:20:35;;;;;;;34.92;6.75;;;;;;;;;;4987815;28;20046;-69
2022/01/23 06:23:00;;;;;;;31.38;5.63;;;;;;;;;;4987770;28;20041;-69
2022/01/23 06:25:32;;;;;;;37.50;4.90;;;;;;;;;;4987452;28;20042;-69
2022/01/23 06:27:58;;;;;;;18.55;3.83;;;;;;;;;;4986212;28;20025;-70
2022/01/23 06:30:23;;;;;;;21.30;3.90;;;;;;;;;;4979848;28;20520;-69
2022/01/23 06:32:49;;;;;;;25.70;4.10;;;;;;;;;;4987877;28;20045;-68
2022/01/23 06:35:15;;;;;;;29.15;4.10;;;;;;;;;;4986369;28;20049;-68
2022/01/23 06:37:40;;;;;;;15.85;3.22;;;;;;;;;;4986434;28;20099;-69
2022/01/23 06:40:06;;;;;;;15.95;2.90;;;;;;;;;;5002403;28;20112;-69
2022/01/23 06:42:34;;;;;;;8.52;2.50;;;;;;;;;;4987779;28;20050;-70
2022/01/23 06:45:00;;;;;;;17.20;2.72;;;;;;;;;;4985032;28;20048;-69
2022/01/23 06:47:26;;;;;;;11.10;2.38;;;;;;;;;;4988655;28;20249;-69
2022/01/23 06:49:51;;;;;;;8.68;2.33;;;;;;;;;;5001820;28;20065;-69
2022/01/23 06:52:16;;;;;;;7.70;1.30;;;;;;;;;;4987409;28;20375;-69
2022/01/23 06:54:42;;;;;;;10.63;1.23;;;;;;;;;;4987119;28;20147;-69
2022/01/23 06:57:08;;;;;;;9.32;1.20;;;;;;;;;;4986812;28;20084;-70
2022/01/23 06:59:33;;;;;;;5.15;0.93;;;;;;;;;;4987698;28;20037;-69
2022/01/23 07:01:58;;;;;;;3.95;1.15;;;;;;;;;;4986917;28;20053;-68
2022/01/23 07:04:24;;;;;;;3.67;0.70;;;;;;;;;;4986252;28;20076;-68
2022/01/23 07:06:49;;;;;;;3.60;1.00;;;;;;;;;;4986617;28;20030;-69
2022/01/23 07:09:15;;;;;;;4.70;1.00;;;;;;;;;;4991123;28;20215;-69
2022/01/23 07:11:40;;;;;;;12.02;1.45;;;;;;;;;;4986906;28;20041;-68
2022/01/23 07:14:06;;;;;;;7.03;1.30;;;;;;;;;;4985361;28;20037;-68
2022/01/23 07:16:31;;;;;;;10.70;1.27;;;;;;;;;;4987226;28;20029;-67
2022/01/23 07:18:58;;;;;;;15.65;1.98;;;;;;;;;;4986740;28;20062;-68
2022/01/23 07:21:26;;;;;;;12.40;2.13;;;;;;;;;;5001518;28;20173;-69
2022/01/23 07:23:52;;;;;;;14.82;1.88;;;;;;;;;;4986561;28;20026;-69
2022/01/23 07:26:19;;;;;;;11.88;1.60;;;;;;;;;;4987134;28;20048;-69
2022/01/23 07:28:46;;;;;;;13.23;2.42;;;;;;;;;;4986428;28;20033;-69
2022/01/23 07:31:20;;;;;;;11.52;2.00;;;;;;;;;;4991693;28;20043;-68
2022/01/23 07:33:45;;;;;;;17.30;2.00;;;;;;;;;;4985817;28;20025;-67
2022/01/23 07:36:11;;;;;;;12.10;2.25;;;;;;;;;;4986847;28;20606;-68
2022/01/23 07:38:36;;;;;;;7.93;1.50;;;;;;;;;;4988844;28;20593;-68
2022/01/23 07:41:02;;;;;;;11.77;1.50;;;;;;;;;;4989706;28;20110;-70
2022/01/23 07:43:27;;;;;;;4.75;1.20;;;;;;;;;;4990869;28;20227;-69
2022/01/23 07:45:55;;;;;;;4.60;1.20;;;;;;;;;;4989862;28;20750;-69
2022/01/23 07:48:20;;;;;;;8.13;0.90;;;;;;;;;;5004876;28;20026;-68
2022/01/23 07:50:45;;;;;;;11.30;1.13;;;;;;;;;;4990285;28;20029;-69
2022/01/23 07:53:11;;;;;;;14.75;1.55;;;;;;;;;;4990951;28;20121;-70
2022/01/23 07:55:36;;;;;;;6.93;1.42;;;;;;;;;;4990040;28;20089;-70
2022/01/23 07:58:12;;;;;;;15.13;2.22;;;;;;;;;;4994293;28;20048;-69
2022/01/23 08:00:38;;;;;;;18.52;2.13;;;;;;;;;;4991283;28;20029;-68
2022/01/23 08:03:04;;;;;;;18.60;2.05;;;;;;;;;;4990040;28;20358;-69
2022/01/23 08:05:29;;;;;;;16.15;2.53;;;;;;;;;;4991513;28;20035;-70
2022/01/23 08:07:55;;;;;;;20.20;2.30;;;;;;;;;;4990259;28;20488;-69
2022/01/23 08:10:20;;;;;;;15.82;2.13;;;;;;;;;;4990445;28;20567;-70
2022/01/23 08:12:45;;;;;;;14.57;1.88;;;;;;;;;;5004835;28;20033;-69
2022/01/23 08:15:11;;;;;;;26.90;2.58;;;;;;;;;;5004908;28;20053;-69
2022/01/23 08:17:36;;;;;;;14.57;2.50;;;;;;;;;;4990290;28;20146;-69
2022/01/23 08:20:03;;;;;;;20.00;2.38;;;;;;;;;;4990074;28;20508;-69
2022/01/23 08:22:29;;;;;;;22.70;2.58;;;;;;;;;;5005213;28;20429;-69
2022/01/23 08:24:55;;;;;;;11.45;2.13;;;;;;;;;;4989474;28;20038;-70
2022/01/23 08:27:20;;;;;;;15.20;1.92;;;;;;;;;;5004272;28;20038;-69
2022/01/23 08:29:48;;;;;;;12.65;2.08;;;;;;;;;;4989551;28;20126;-69
2022/01/23 08:32:14;;;;;;;3.72;1.25;;;;;;;;;;4990589;28;20428;-69
2022/01/23 08:34:39;;;;;;;8.95;1.60;;;;;;;;;;4989586;28;20034;-69
2022/01/23 08:37:06;;;;;;;13.85;1.92;;;;;;;;;;4990777;28;20037;-69
2022/01/23 08:39:35;;;;;;;7.07;1.50;;;;;;;;;;4989904;28;20204;-69
2022/01/23 08:42:13;;;;;;;9.02;1.58;;;;;;;;;;4978471;28;20129;-69
2022/01/23 08:44:39;;;;;;;8.63;1.27;;;;;;;;;;4989498;28;21822;-69
2022/01/23 08:47:05;;;;;;;5.70;1.60;;;;;;;;;;4990003;28;20478;-69
2022/01/23 08:49:31;;;;;;;6.38;1.75;;;;;;;;;;4988486;28;20488;-69
2022/01/23 08:51:57;;;;;;;7.78;3.30;;;;;;;;;;4989984;28;20029;-69
2022/01/23 08:54:23;;;;;;;9.95;3.08;;;;;;;;;;4989342;28;20136;-69
2022/01/23 08:56:48;;;;;;;18.55;3.38;;;;;;;;;;4990286;28;20029;-69
2022/01/23 08:59:14;;;;;;;16.50;3.50;;;;;;;;;;4988436;28;20030;-69
2022/01/23 09:01:40;;;;;;;10.73;2.58;;;;;;;;;;4989561;28;20129;-69
2022/01/23 09:04:06;;;;;;;14.90;2.83;;;;;;;;;;4989480;28;20517;-69
2022/01/23 09:06:32;;;;;;;8.30;2.33;;;;;;;;;;4989671;28;20136;-69
2022/01/23 09:09:03;;;;;;;14.63;2.35;;;;;;;;;;4990004;28;20456;-69
2022/01/23 09:12:05;;;;;;;6.63;1.50;;;;;;;;;;4988968;28;20381;-70
2022/01/23 09:14:20;;;;;;;5.90;1.90;;;;;;;;;;4989523;28;20044;-69
2022/01/23 09:16:46;;;;;;;4.95;1.75;;;;;;;;;;4988089;28;20042;-69
2022/01/23 09:19:12;;;;;;;8.10;1.55;;;;;;;;;;4988795;28;20057;-69
2022/01/23 09:21:38;;;;;;;8.52;1.65;;;;;;;;;;4989098;28;20120;-70
2022/01/23 09:24:05;;;;;;;9.07;2.50;;;;;;;;;;4989857;28;20037;-69
2022/01/23 09:26:31;;;;;;;9.60;2.60;;;;;;;;;;4989564;28;20113;-69
2022/01/23 09:29:01;;;;;;;14.45;2.90;;;;;;;;;;4992476;28;20045;-69
2022/01/23 09:31:48;;;;;;;10.38;2.58;;;;;;;;;;4989217;28;20031;-69
2022/01/23 09:34:14;;;;;;;10.30;2.13;;;;;;;;;;5003107;28;20041;-69
2022/01/23 09:36:40;;;;;;;12.70;2.72;;;;;;;;;;4989576;28;20493;-69
2022/01/23 09:39:05;;;;;;;10.20;3.30;;;;;;;;;;4989069;28;20041;-69
2022/01/23 09:41:32;;;;;;;9.43;3.63;;;;;;;;;;5003665;28;20741;-69
2022/01/23 09:43:59;;;;;;;7.63;3.50;;;;;;;;;;4992068;28;20097;-69
2022/01/23 09:46:25;;;;;;;12.85;4.50;;;;;;;;;;4988761;28;20083;-68
2022/01/23 09:48:52;;;;;;;9.57;5.50;;;;;;;;;;4988292;28;20129;-67
2022/01/23 09:51:20;;;;;;;15.15;6.88;;;;;;;;;;4994161;28;20030;-69
2022/01/23 09:53:46;;;;;;;13.05;6.53;;;;;;;;;;4988203;28;20699;-68
2022/01/23 09:56:14;;;;;;;17.00;6.93;;;;;;;;;;4989449;28;20028;-69
2022/01/23 09:58:40;;;;;;;18.10;7.47;;;;;;;;;;4987693;28;20453;-69
2022/01/23 10:01:05;;;;;;;14.27;7.65;;;;;;;;;;4987572;28;20053;-69
2022/01/23 10:03:31;;;;;;;16.15;7.10;;;;;;;;;;4986663;28;20048;-70
2022/01/23 10:05:56;;;;;;;20.50;7.75;;;;;;;;;;4988515;28;20038;-69
2022/01/23 10:08:27;;;;;;;19.20;7.78;;;;;;;;;;4986426;28;20653;-71
2022/01/23 10:10:55;;;;;;;18.33;7.20;;;;;;;;;;4991202;28;20037;-69
2022/01/23 10:13:21;;;;;;;20.00;8.25;;;;;;;;;;4991592;28;20117;-69
2022/01/23 10:15:47;;;;;;;19.27;8.23;;;;;;;;;;4988566;28;20043;-69
2022/01/23 10:18:12;;;;;;;21.92;8.98;;;;;;;;;;4992487;28;20033;-69
2022/01/23 10:20:38;;;;;;;19.20;8.55;;;;;;;;;;4987946;28;20516;-69
2022/01/23 10:23:04;;;;;;;18.60;8.48;;;;;;;;;;4987983;28;20036;-69
2022/01/23 10:25:30;;;;;;;21.90;9.48;;;;;;;;;;4988594;28;20097;-69
2022/01/23 10:28:00;;;;;;;21.08;8.55;;;;;;;;;;4987756;28;20141;-69
2022/01/23 10:30:26;;;;;;;17.92;8.30;;;;;;;;;;4987437;28;20712;-70
2022/01/23 10:33:32;;;;;;;26.83;8.68;;;;;;;;;;4976026;28;20556;-69
2022/01/23 10:36:14;;;;;;;18.63;8.52;;;;;;;;;;4971738;28;20225;-69
2022/01/23 10:39:00;;;;;;;22.83;8.18;;;;;;;;;;4970763;28;20038;-71
2022/01/23 10:49:49;;;;;;;16.88;8.73;;;;;;;;;;4987856;28;20029;-70
2022/01/23 10:52:29;;;;;;;19.98;9.13;;;;;;;;;;4987511;28;20942;-70
2022/01/23 10:54:55;;;;;;;21.88;9.68;;;;;;;;;;4986979;28;20446;-70
2022/01/23 10:57:21;;;;;;;22.38;9.75;;;;;;;;;;4987228;28;20136;-69
2022/01/23 10:59:47;;;;;;;23.63;8.85;;;;;;;;;;4986883;28;20641;-69
2022/01/23 11:02:15;;;;;;;22.60;9.02;;;;;;;;;;4988001;28;20117;-69
2022/01/23 11:04:52;;;;;;;19.55;8.35;;;;;;;;;;4958324;28;20534;-69
2022/01/23 11:07:18;;;;;;;27.92;9.23;;;;;;;;;;4991546;28;20037;-70
2022/01/23 11:09:44;;;;;;;29.38;9.35;;;;;;;;;;4986931;28;20370;-69
2022/01/23 11:12:27;;;;;;;27.10;9.45;;;;;;;;;;4985855;28;20026;-69
2022/01/23 11:17:50;;;;;;;24.52;9.70;;;;;;;;;;4986873;28;20493;-69
2022/01/23 11:20:28;;;;;;;22.92;9.98;;;;;;;;;;4987908;28;20026;-69
2022/01/23 11:22:59;;;;;;;26.23;10.90;;;;;;;;;;4987399;28;20624;-68
2022/01/23 11:25:27;;;;;;;22.20;10.85;;;;;;;;;;4987699;28;20434;-70
2022/01/23 11:28:00;;;;;;;33.15;10.90;;;;;;;;;;4987517;28;20046;-69
2022/01/23 11:30:33;;;;;;;29.90;11.40;;;;;;;;;;4986769;28;20072;-69
2022/01/23 11:32:59;;;;;;;38.83;12.52;;;;;;;;;;4987567;28;20041;-69
2022/01/23 11:35:27;;;;;;;25.98;12.05;;;;;;;;;;4985398;28;20085;-70
2022/01/23 11:37:56;;;;;;;25.83;11.68;;;;;;;;;;4987101;28;20034;-70
2022/01/23 11:54:05;;;;;;;47.75;15.90;;;;;;;;;;4977930;28;20529;-68
2022/01/23 11:56:35;;;;;;;37.30;15.18;;;;;;;;;;4987020;28;20033;-68
2022/01/23 11:59:14;;;;;;;32.05;14.80;;;;;;;;;;4978783;28;20148;-69
2022/01/23 12:01:40;;;;;;;35.72;14.65;;;;;;;;;;4989942;28;20453;-69
2022/01/23 12:04:05;;;;;;;31.38;14.63;;;;;;;;;;4977497;28;20117;-69
2022/01/23 12:06:31;;;;;;;35.20;15.35;;;;;;;;;;4972765;28;20026;-70
2022/01/23 12:09:22;;;;;;;34.30;15.32;;;;;;;;;;4976179;28;20033;-68
2022/01/23 12:17:17;;;;;;;40.97;14.65;;;;;;;;;;4981357;28;20042;-71
2022/01/23 12:19:50;;;;;;;27.50;14.07;;;;;;;;;;4977412;28;20064;-68
2022/01/23 12:22:22;;;;;;;27.90;14.15;;;;;;;;;;4978219;28;20485;-69
2022/01/23 12:24:49;;;;;;;36.28;18.10;;;;;;;;;;4979608;28;20143;-67
2022/01/23 12:27:19;;;;;;;35.03;16.98;;;;;;;;;;4985660;28;20026;-68
2022/01/23 12:29:44;;;;;;;27.00;16.70;;;;;;;;;;4993075;28;20042;-69
2022/01/23 12:32:18;;;;;;;35.13;16.52;;;;;;;;;;4981003;28;20096;-69
2022/01/23 12:34:45;;;;;;;22.65;13.30;;;;;;;;;;4981240;28;20026;-69
2022/01/23 12:37:13;;;;;;;22.50;12.45;;;;;;;;;;4981278;28;20061;-70
2022/01/23 12:39:39;;;;;;;21.00;12.70;;;;;;;;;;4981641;28;20523;-69
2022/01/23 12:42:05;;;;;;;20.25;10.88;;;;;;;;;;4976482;28;20122;-68
2022/01/23 12:44:35;;;;;;;18.63;9.45;;;;;;;;;;4992698;28;20057;-69
2022/01/23 12:47:03;;;;;;;15.13;8.63;;;;;;;;;;4980597;28;20044;-68
2022/01/23 12:49:31;;;;;;;20.02;9.35;;;;;;;;;;4991833;28;20058;-67
2022/01/23 12:51:56;;;;;;;21.95;10.07;;;;;;;;;;4995522;28;20091;-68
2022/01/23 12:54:25;;;;;;;17.33;8.65;;;;;;;;;;4984994;28;20457;-70
2022/01/23 12:56:51;;;;;;;14.35;7.53;;;;;;;;;;4964933;28;20717;-68
2022/01/23 12:59:28;;;;;;;11.98;7.32;;;;;;;;;;4981459;28;20454;-68
2022/01/23 13:02:06;;;;;;;16.42;7.15;;;;;;;;;;4980726;28;20042;-69
2022/01/23 13:04:42;;;;;;;13.25;6.57;;;;;;;;;;4980260;28;20030;-68
2022/01/23 13:07:18;;;;;;;15.85;7.10;;;;;;;;;;4975591;28;20144;-68
2022/01/23 13:09:55;;;;;;;10.13;6.88;;;;;;;;;;4980443;28;20022;-68
2022/01/23 13:31:53;;;;;;;6.25;4.03;;;;;;;;;;4980927;28;20133;-69
2022/01/23 13:34:32;;;;;;;6.85;4.05;;;;;;;;;;4980310;28;20034;-69
2022/01/23 13:37:00;;;;;;;12.07;5.28;;;;;;;;;;4963280;28;20041;-70
2022/01/23 13:39:30;;;;;;;11.00;6.10;;;;;;;;;;4980721;28;20037;-68
2022/01/23 13:42:04;;;;;;;18.85;6.38;;;;;;;;;;4980375;28;20117;-69
2022/01/23 13:53:30;;;;;;;11.57;5.88;;;;;;;;;;4979640;28;20048;-69
2022/01/23 13:58:50;;;;;;;14.70;6.60;;;;;;;;;;4979211;28;20040;-69
2022/01/23 14:01:48;;;;;;;19.02;5.80;;;;;;;;;;4981094;28;20076;-69
2022/01/23 14:04:06;;;;;;;18.13;5.60;;;;;;;;;;4979853;28;20171;-69
2022/01/23 14:06:32;;;;;;;14.13;5.30;;;;;;;;;;4994432;28;20026;-69
2022/01/23 14:09:00;;;;;;;9.77;4.72;;;;;;;;;;4979691;28;20426;-70
2022/01/23 14:11:26;;;;;;;11.32;4.68;;;;;;;;;;4979879;28;20882;-70
2022/01/23 14:13:51;;;;;;;12.43;5.20;;;;;;;;;;4990527;28;20022;-70
2022/01/23 14:16:24;;;;;;;16.20;4.47;;;;;;;;;;4980243;28;20089;-69
2022/01/23 14:18:49;;;;;;;;;;;;;;;;;;4979546;28;20037;-70
2022/01/23 14:21:15;;;;;;;16.83;4.25;;;;;;;;;;4979538;28;19922;-69
2022/01/23 14:23:51;;;;;;;11.60;3.92;;;;;;;;;;4993652;28;20034;-69
2022/01/23 14:26:22;;;;;;;13.85;3.50;;;;;;;;;;4979063;28;20022;-70
2022/01/23 14:28:51;;;;;;;9.23;2.80;;;;;;;;;;4979296;28;20026;-69
2022/01/23 14:31:24;;;;;;;6.07;2.55;;;;;;;;;;4983463;28;20038;-70
2022/01/23 14:33:57;;;;;;;6.93;2.97;;;;;;;;;;4978501;28;20033;-70
2022/01/23 14:36:26;;;;;;;7.80;3.85;;;;;;;;;;4979859;28;21132;-69
2022/01/23 14:38:52;;;;;;;5.30;2.38;;;;;;;;;;4982886;28;20037;-69
2022/01/23 14:41:18;;;;;;;8.25;2.58;;;;;;;;;;4979356;28;20112;-70
2022/01/23 14:43:43;;;;;;;10.07;2.60;;;;;;;;;;4979575;28;20466;-69
2022/01/23 14:46:12;;;;;;;10.95;2.35;;;;;;;;;;4979058;28;20045;-68
2022/01/23 14:48:44;;;;;;;8.52;1.90;;;;;;;;;;4977840;28;20234;-70
2022/01/23 14:51:09;;;;;;;9.32;1.80;;;;;;;;;;4979365;28;20026;-70
2022/01/23 14:53:42;;;;;;;5.22;2.00;;;;;;;;;;4978837;28;20669;-70
2022/01/23 14:56:09;;;;;;;7.13;2.17;;;;;;;;;;4978466;28;20293;-69
2022/01/23 14:58:37;;;;;;;5.47;2.47;;;;;;;;;;4980615;28;20453;-69
2022/01/23 15:01:04;;;;;;;6.32;1.95;;;;;;;;;;4990345;28;20174;-70
2022/01/23 15:03:30;;;;;;;6.07;2.10;;;;;;;;;;4978185;28;20081;-69
2022/01/23 15:05:59;;;;;;;9.27;2.53;;;;;;;;;;4979185;28;20771;-69
2022/01/23 15:08:25;;;;;;;8.15;2.85;;;;;;;;;;4978122;28;20398;-69
2022/01/23 15:10:53;;;;;;;8.57;2.42;;;;;;;;;;4979560;28;20041;-70
2022/01/23 15:13:22;;;;;;;8.00;2.60;;;;;;;;;;4978086;28;20098;-70
2022/01/23 15:15:48;;;;;;;15.02;3.65;;;;;;;;;;4973831;28;20038;-70
2022/01/23 15:18:16;;;;;;;4.47;2.42;;;;;;;;;;4977748;28;20096;-70
2022/01/23 15:20:42;;;;;;;7.13;2.33;;;;;;;;;;4978830;28;20030;-69
2022/01/23 15:23:08;;;;;;;8.18;2.40;;;;;;;;;;4973351;28;20117;-69
2022/01/23 15:25:34;;;;;;;10.52;2.72;;;;;;;;;;4978675;28;20056;-69
2022/01/23 15:28:02;;;;;;;10.82;2.80;;;;;;;;;;4978881;28;20166;-69
2022/01/23 15:30:31;;;;;;;17.27;3.80;;;;;;;;;;4978449;28;20478;-69
2022/01/23 15:32:56;;;;;;;11.25;3.30;;;;;;;;;;4958006;28;20644;-69
2022/01/23 15:35:23;;;;;;;9.80;3.60;;;;;;;;;;4984938;28;20035;-69
2022/01/23 15:37:49;;;;;;;9.88;3.95;;;;;;;;;;4958876;28;20087;-70
2022/01/23 15:40:19;;;;;;;9.93;3.38;;;;;;;;;;5001221;28;20033;-69
2022/01/23 15:42:45;;;;;;;14.35;3.42;;;;;;;;;;4987518;28;20235;-70
2022/01/23 15:45:11;;;;;;;13.77;3.88;;;;;;;;;;4986312;28;20064;-69
2022/01/23 15:47:37;;;;;;;17.23;4.63;;;;;;;;;;4986958;28;20334;-70
2022/01/23 15:50:03;;;;;;;13.43;5.30;;;;;;;;;;4985980;28;20034;-70
2022/01/23 15:52:28;;;;;;;10.65;5.40;;;;;;;;;;4974700;28;20149;-69
2022/01/23 15:54:56;;;;;;;6.53;5.00;;;;;;;;;;4990666;28;20041;-69
2022/01/23 15:57:21;;;;;;;7.22;4.55;;;;;;;;;;5002175;28;20452;-71
2022/01/23 15:59:50;;;;;;;8.45;4.82;;;;;;;;;;4988228;28;20033;-69
2022/01/23 16:02:15;;;;;;;13.13;7.10;;;;;;;;;;5005152;28;20044;-69
2022/01/23 16:04:41;;;;;;;13.40;5.88;;;;;;;;;;4989876;28;20034;-69
2022/01/23 16:07:07;;;;;;;8.60;5.68;;;;;;;;;;4990050;28;20030;-70
2022/01/23 16:09:35;;;;;;;10.60;6.53;;;;;;;;;;4989722;28;20036;-70
2022/01/23 16:12:02;;;;;;;9.75;6.93;;;;;;;;;;4990455;28;20375;-72
2022/01/23 16:14:32;;;;;;;11.73;6.15;;;;;;;;;;4988516;28;20732;-69
2022/01/23 16:16:57;;;;;;;9.20;5.60;;;;;;;;;;4990089;28;20041;-69
2022/01/23 16:19:24;;;;;;;12.57;6.63;;;;;;;;;;4989262;28;20062;-70
2022/01/23 16:21:54;;;;;;;9.60;6.55;;;;;;;;;;4989643;28;20037;-69
2022/01/23 16:24:22;;;;;;;9.38;5.75;;;;;;;;;;4982868;28;20026;-70
2022/01/23 16:26:49;;;;;;;12.15;6.38;;;;;;;;;;4991155;28;20096;-69
2022/01/23 16:29:16;;;;;;;14.75;6.70;;;;;;;;;;4990320;28;20080;-69
2022/01/23 16:31:41;;;;;;;12.25;6.60;;;;;;;;;;4989757;28;20164;-71
2022/01/23 16:34:07;;;;;;;7.47;5.20;;;;;;;;;;4989388;28;20064;-69
2022/01/23 16:36:35;;;;;;;10.27;5.47;;;;;;;;;;4989454;28;20030;-69
2022/01/23 16:39:00;;;;;;;10.35;5.60;;;;;;;;;;4993505;28;20028;-69
2022/01/23 16:41:28;;;;;;;16.50;10.65;;;;;;;;;;4990005;28;20044;-71
2022/01/23 16:43:54;;;;;;;17.58;12.43;;;;;;;;;;4993017;28;20037;-69
2022/01/23 16:46:19;;;;;;;14.73;9.40;;;;;;;;;;4989572;28;20124;-70
2022/01/23 16:48:44;;;;;;;17.10;10.23;;;;;;;;;;4989917;28;20045;-69
2022/01/23 16:51:10;;;;;;;18.90;11.40;;;;;;;;;;4993473;28;20540;-72
2022/01/23 16:53:37;;;;;;;21.10;10.65;;;;;;;;;;4990049;28;20081;-70
2022/01/23 16:56:03;;;;;;;16.35;10.93;;;;;;;;;;4988755;28;20497;-71
2022/01/23 16:58:30;;;;;;;21.48;12.90;;;;;;;;;;4988559;28;20033;-70
2022/01/23 17:00:56;;;;;;;22.10;14.77;;;;;;;;;;4993760;28;20030;-69
2022/01/23 17:03:22;;;;;;;22.88;15.20;;;;;;;;;;4989284;28;20026;-70
2022/01/23 17:05:47;;;;;;;18.75;12.02;;;;;;;;;;4993425;28;20066;-71
2022/01/23 17:08:15;;;;;;;16.95;10.30;;;;;;;;;;4993366;28;20560;-70
2022/01/23 17:10:41;;;;;;;16.52;10.48;;;;;;;;;;4988751;28;20564;-70
2022/01/23 17:13:07;;;;;;;17.35;9.55;;;;;;;;;;4989771;28;20018;-69
2022/01/23 17:15:32;;;;;;;15.75;10.98;;;;;;;;;;4977397;28;20117;-70
2022/01/23 17:18:02;;;;;;;16.42;10.27;;;;;;;;;;4988465;28;20267;-69
2022/01/23 17:20:27;;;;;;;20.35;12.25;;;;;;;;;;4989038;28;20255;-70
2022/01/23 17:22:52;;;;;;;29.25;17.33;;;;;;;;;;4989803;28;20046;-69
2022/01/23 17:25:18;;;;;;;23.48;16.88;;;;;;;;;;4989568;28;20057;-68
2022/01/23 17:27:48;;;;;;;29.70;20.60;;;;;;;;;;4988844;28;20043;-68
2022/01/23 17:30:14;;;;;;;30.88;20.48;;;;;;;;;;4988800;28;20317;-69
2022/01/23 17:32:42;;;;;;;28.23;14.93;;;;;;;;;;4988942;28;20144;-69
2022/01/23 17:35:12;;;;;;;25.40;12.68;;;;;;;;;;4988694;28;20051;-68
2022/01/23 17:37:37;;;;;;;16.23;10.30;;;;;;;;;;4987925;28;20116;-68
2022/01/23 17:40:06;;;;;;;19.35;10.15;;;;;;;;;;4989630;28;20362;-69
2022/01/23 17:42:34;;;;;;;22.50;13.32;;;;;;;;;;4988668;28;20039;-69
2022/01/23 17:44:59;;;;;;;26.55;12.68;;;;;;;;;;4988673;28;20064;-69
2022/01/23 17:49:58;;;;;;;24.67;15.57;;;;;;;;;;4987901;28;20080;-69
2022/01/23 17:52:24;;;;;;;24.00;15.02;;;;;;;;;;4988590;28;20028;-68
2022/01/23 17:54:50;;;;;;;20.77;12.68;;;;;;;;;;4992548;28;22309;-68
2022/01/23 17:57:16;;;;;;;20.17;12.75;;;;;;;;;;4988743;28;20198;-69
2022/01/23 17:59:44;;;;;;;21.30;13.30;;;;;;;;;;4992635;28;20171;-69
2022/01/23 18:02:10;;;;;;;22.90;15.10;;;;;;;;;;4988085;28;20121;-69
2022/01/23 18:04:38;;;;;;;29.45;17.73;;;;;;;;;;4991361;28;20132;-68